PWSweather.com
Personal Weather Stations
Station Observations
KPAEXPOR2
Wellington Estates, Export, PA 15632

Wellington EstatesExport, PA 15632

Lat: 40.446, Lon: -79.592

Elevation: 1286

Station Type: PWS1000-TD

http://www.westmorelandweather.com

Latest ConditionsUpdated 11:55:00 AM EST Sunday, Jan 26, 2020
Currently Today's Max Today's Min Today's Average
Temperature 33.3°F0.7°C 34.5°F1.4°C 32.1°F0.1°C 33.0°F0.6°C
Dew Point 25.0°F-3.9°C 28.4°F-2.0°C 24.7°F-4.1°C 26.5°F-3.1°C
Winds 3.7 mph S6.0 kmh S 4.1 mph -6.6 kmh - - 2.1 mph 3.4 kmh
Wind Gusts 10.7 mph17.2 kmh 11.4 mph18.3 kmh - -
Humidity 71% 79% 71% 77%
Pressure 30.05 in1017.6 mb 30.07 in1018.3 mb 30.02 in1016.6 mb -
Hour Temp Dew Point Humidity Winds Wind Gusts Pressure Precip Precip Rate Daily Precip Total
11:55 AM 33.3°F0.7°C 25.0°F-3.9°C 71% 3.7 mph S6.0 kmh S 10.7 mph17.2 kmh 30.05 in1017.6 mb 0.00 in0.0 mm 0.00 in0.0 mm 0.00 in0.0 mm
11:50 AM 33.3°F0.7°C 25.2°F-3.8°C 72% 2.5 mph S4.0 kmh S 6.0 mph9.7 kmh 30.05 in1017.6 mb 0.00 in0.0 mm 0.00 in0.0 mm 0.00 in0.0 mm
11:45 AM 33.3°F0.7°C 25.1°F-3.8°C 72% 2.5 mph S4.0 kmh S 8.3 mph13.4 kmh 30.05 in1017.6 mb 0.00 in0.0 mm 0.00 in0.0 mm 0.00 in0.0 mm
11:40 AM 33.3°F0.7°C 25.2°F-3.8°C 72% 2.9 mph SW4.7 kmh SW 8.3 mph13.4 kmh 30.05 in1017.6 mb 0.00 in0.0 mm 0.00 in0.0 mm 0.00 in0.0 mm
11:35 AM 33.2°F0.7°C 25.1°F-3.8°C 72% 3.5 mph WSW5.6 kmh WSW 8.3 mph13.4 kmh 30.05 in1017.6 mb 0.00 in0.0 mm 0.00 in0.0 mm 0.00 in0.0 mm
11:30 AM 33.3°F0.7°C 25.2°F-3.8°C 72% 2.9 mph S4.7 kmh S 8.3 mph13.4 kmh 30.05 in1017.6 mb 0.00 in0.0 mm 0.00 in0.0 mm 0.00 in0.0 mm
11:25 AM 33.3°F0.7°C 25.4°F-3.7°C 72% 2.9 mph S4.7 kmh S 6.9 mph11.1 kmh 30.05 in1017.6 mb 0.00 in0.0 mm 0.00 in0.0 mm 0.00 in0.0 mm
11:20 AM 33.2°F0.7°C 25.5°F-3.6°C 73% 3.9 mph S6.3 kmh S 9.8 mph15.8 kmh 30.05 in1017.6 mb 0.00 in0.0 mm 0.00 in0.0 mm 0.00 in0.0 mm
11:15 AM 33.1°F0.6°C 25.4°F-3.7°C 73% 3.2 mph S5.1 kmh S 7.6 mph12.2 kmh 30.06 in1017.9 mb 0.00 in0.0 mm 0.00 in0.0 mm 0.00 in0.0 mm
11:10 AM 33.1°F0.6°C 25.4°F-3.7°C 73% 1.8 mph S2.9 kmh S 5.4 mph8.7 kmh 30.06 in1017.9 mb 0.00 in0.0 mm 0.00 in0.0 mm 0.00 in0.0 mm
11:05 AM 32.9°F0.5°C 25.2°F-3.8°C 73% 0.4 mph SE0.6 kmh SE 5.4 mph8.7 kmh 30.06 in1017.9 mb 0.00 in0.0 mm 0.00 in0.0 mm 0.00 in0.0 mm
11:00 AM 32.9°F0.5°C 25.2°F-3.8°C 73% 1.3 mph S2.1 kmh S 5.4 mph8.7 kmh 30.06 in1017.9 mb 0.00 in0.0 mm 0.00 in0.0 mm 0.00 in0.0 mm
10:55 AM 32.9°F0.5°C 25.2°F-3.8°C 73% 2.5 mph WSW4.0 kmh WSW 6.9 mph11.1 kmh 30.06 in1017.9 mb 0.00 in0.0 mm 0.00 in0.0 mm 0.00 in0.0 mm
10:50 AM 32.9°F0.5°C 25.5°F-3.6°C 74% 2.3 mph SW3.7 kmh SW 6.9 mph11.1 kmh 30.06 in1017.9 mb 0.00 in0.0 mm 0.00 in0.0 mm 0.00 in0.0 mm
10:45 AM 32.9°F0.5°C 25.5°F-3.6°C 74% 3.1 mph SSW5.0 kmh SSW 7.6 mph12.2 kmh 30.06 in1017.9 mb 0.00 in0.0 mm 0.00 in0.0 mm 0.00 in0.0 mm
10:40 AM 32.9°F0.5°C 25.5°F-3.6°C 74% 2.4 mph S3.9 kmh S 7.6 mph12.2 kmh 30.06 in1017.9 mb 0.00 in0.0 mm 0.00 in0.0 mm 0.00 in0.0 mm
10:35 AM 32.9°F0.5°C 25.6°F-3.6°C 74% 2.5 mph S4.0 kmh S 5.4 mph8.7 kmh 30.06 in1017.9 mb 0.00 in0.0 mm 0.00 in0.0 mm 0.00 in0.0 mm
10:30 AM 32.8°F0.4°C 25.4°F-3.7°C 74% 1.3 mph S2.1 kmh S 4.5 mph7.2 kmh 30.06 in1017.9 mb 0.00 in0.0 mm 0.00 in0.0 mm 0.00 in0.0 mm
10:25 AM 32.7°F0.4°C 25.4°F-3.7°C 74% 2.0 mph S3.2 kmh S 6.0 mph9.7 kmh 30.06 in1017.9 mb 0.00 in0.0 mm 0.00 in0.0 mm 0.00 in0.0 mm
10:20 AM 33.1°F0.6°C 25.8°F-3.4°C 74% 3.1 mph SW5.0 kmh SW 10.7 mph17.2 kmh 30.07 in1018.3 mb 0.00 in0.0 mm 0.00 in0.0 mm 0.00 in0.0 mm
10:15 AM 32.8°F0.4°C 25.4°F-3.7°C 74% 3.7 mph SW6.0 kmh SW 8.3 mph13.4 kmh 30.06 in1017.9 mb 0.00 in0.0 mm 0.00 in0.0 mm 0.00 in0.0 mm
10:10 AM 32.9°F0.5°C 25.9°F-3.4°C 75% 1.9 mph S3.1 kmh S 10.7 mph17.2 kmh 30.06 in1017.9 mb 0.00 in0.0 mm 0.00 in0.0 mm 0.00 in0.0 mm
10:05 AM 32.8°F0.4°C 25.7°F-3.5°C 75% 1.1 mph SSW1.8 kmh SSW 3.8 mph6.1 kmh 30.06 in1017.9 mb 0.00 in0.0 mm 0.00 in0.0 mm 0.00 in0.0 mm
10:00 AM 32.6°F0.3°C 25.5°F-3.6°C 75% 1.3 mph NW2.1 kmh NW 5.4 mph8.7 kmh 30.06 in1017.9 mb 0.00 in0.0 mm 0.00 in0.0 mm 0.00 in0.0 mm
09:55 AM 32.5°F0.3°C 25.5°F-3.6°C 75% 2.6 mph S4.2 kmh S 6.9 mph11.1 kmh 30.06 in1017.9 mb 0.00 in0.0 mm 0.00 in0.0 mm 0.00 in0.0 mm
09:50 AM 32.5°F0.3°C 25.4°F-3.7°C 75% 2.3 mph S3.7 kmh S 6.9 mph11.1 kmh 30.06 in1017.9 mb 0.00 in0.0 mm 0.00 in0.0 mm 0.00 in0.0 mm
09:45 AM 32.5°F0.3°C 25.2°F-3.8°C 74% 2.1 mph S3.4 kmh S 6.0 mph9.7 kmh 30.06 in1017.9 mb 0.00 in0.0 mm 0.00 in0.0 mm 0.00 in0.0 mm
09:40 AM 32.5°F0.3°C 25.2°F-3.8°C 74% 2.9 mph SW4.7 kmh SW 6.9 mph11.1 kmh 30.06 in1017.9 mb 0.00 in0.0 mm 0.00 in0.0 mm 0.00 in0.0 mm
09:35 AM 32.5°F0.3°C 25.2°F-3.8°C 74% 3.5 mph SSW5.6 kmh SSW 8.3 mph13.4 kmh 30.06 in1017.9 mb 0.00 in0.0 mm 0.00 in0.0 mm 0.00 in0.0 mm
09:30 AM 32.5°F0.3°C 25.2°F-3.8°C 74% 2.1 mph S3.4 kmh S 9.8 mph15.8 kmh 30.06 in1017.9 mb 0.00 in0.0 mm 0.00 in0.0 mm 0.00 in0.0 mm
09:25 AM 32.5°F0.3°C 25.2°F-3.8°C 74% 2.8 mph SSW4.5 kmh SSW 6.9 mph11.1 kmh 30.06 in1017.9 mb 0.00 in0.0 mm 0.00 in0.0 mm 0.00 in0.0 mm
09:20 AM 32.5°F0.3°C 25.2°F-3.8°C 74% 3.8 mph S6.1 kmh S 6.9 mph11.1 kmh 30.06 in1017.9 mb 0.00 in0.0 mm 0.00 in0.0 mm 0.00 in0.0 mm
09:15 AM 32.6°F0.3°C 25.2°F-3.8°C 74% 2.5 mph SSW4.0 kmh SSW 6.9 mph11.1 kmh 30.06 in1017.9 mb 0.00 in0.0 mm 0.00 in0.0 mm 0.00 in0.0 mm
09:10 AM 32.8°F0.4°C 25.5°F-3.6°C 74% 1.9 mph S3.1 kmh S 5.4 mph8.7 kmh 30.06 in1017.9 mb 0.00 in0.0 mm 0.00 in0.0 mm 0.00 in0.0 mm
09:05 AM 32.5°F0.3°C 24.9°F-3.9°C 73% 2.2 mph S3.5 kmh S 6.9 mph11.1 kmh 30.07 in1018.3 mb 0.00 in0.0 mm 0.00 in0.0 mm 0.00 in0.0 mm
09:00 AM 32.5°F0.3°C 24.9°F-3.9°C 73% 3.0 mph S4.8 kmh S 7.6 mph12.2 kmh 30.07 in1018.3 mb 0.00 in0.0 mm 0.00 in0.0 mm 0.00 in0.0 mm
08:55 AM 32.5°F0.3°C 24.9°F-3.9°C 73% 2.2 mph S3.5 kmh S 6.9 mph11.1 kmh 30.07 in1018.3 mb 0.00 in0.0 mm 0.00 in0.0 mm 0.00 in0.0 mm
08:50 AM 32.5°F0.3°C 24.9°F-3.9°C 73% 2.9 mph S4.7 kmh S 8.3 mph13.4 kmh 30.07 in1018.3 mb 0.00 in0.0 mm 0.00 in0.0 mm 0.00 in0.0 mm
08:45 AM 32.6°F0.3°C 25.0°F-3.9°C 73% 2.4 mph S3.9 kmh S 6.0 mph9.7 kmh 30.07 in1018.3 mb 0.00 in0.0 mm 0.00 in0.0 mm 0.00 in0.0 mm
08:40 AM 32.7°F0.4°C 25.3°F-3.7°C 74% 2.2 mph S3.5 kmh S 6.9 mph11.1 kmh 30.07 in1018.3 mb 0.00 in0.0 mm 0.00 in0.0 mm 0.00 in0.0 mm
08:35 AM 32.7°F0.4°C 25.4°F-3.7°C 74% 1.6 mph S2.6 kmh S 3.8 mph6.1 kmh 30.07 in1018.3 mb 0.00 in0.0 mm 0.00 in0.0 mm 0.00 in0.0 mm
08:30 AM 32.7°F0.4°C 25.4°F-3.7°C 74% 2.2 mph S3.5 kmh S 5.4 mph8.7 kmh 30.07 in1018.3 mb 0.00 in0.0 mm 0.00 in0.0 mm 0.00 in0.0 mm
08:25 AM 32.6°F0.3°C 25.2°F-3.8°C 74% 2.1 mph WNW3.4 kmh WNW 7.6 mph12.2 kmh 30.07 in1018.3 mb 0.00 in0.0 mm 0.00 in0.0 mm 0.00 in0.0 mm
08:20 AM 32.5°F0.3°C 25.2°F-3.8°C 74% 2.7 mph NE4.3 kmh NE 7.6 mph12.2 kmh 30.07 in1018.3 mb 0.00 in0.0 mm 0.00 in0.0 mm 0.00 in0.0 mm
08:15 AM 32.1°F0.1°C 24.7°F-4.1°C 74% 2.8 mph S4.5 kmh S 9.8 mph15.8 kmh 30.07 in1018.3 mb 0.00 in0.0 mm 0.00 in0.0 mm 0.00 in0.0 mm
08:10 AM 32.6°F0.3°C 25.2°F-3.8°C 74% 2.5 mph S4.0 kmh S 9.8 mph15.8 kmh 30.07 in1018.3 mb 0.00 in0.0 mm 0.00 in0.0 mm 0.00 in0.0 mm
08:05 AM 32.6°F0.3°C 25.2°F-3.8°C 74% 2.3 mph SSW3.7 kmh SSW 9.8 mph15.8 kmh 30.07 in1018.3 mb 0.00 in0.0 mm 0.00 in0.0 mm 0.00 in0.0 mm
08:00 AM 32.5°F0.3°C 25.2°F-3.8°C 74% 1.4 mph S2.3 kmh S 5.4 mph8.7 kmh 30.07 in1018.3 mb 0.00 in0.0 mm 0.00 in0.0 mm 0.00 in0.0 mm
07:55 AM 32.6°F0.3°C 25.2°F-3.8°C 74% 1.1 mph S1.8 kmh S 3.8 mph6.1 kmh 30.06 in1017.9 mb 0.00 in0.0 mm 0.00 in0.0 mm 0.00 in0.0 mm
07:50 AM 32.7°F0.4°C 25.5°F-3.6°C 74% 1.4 mph S2.3 kmh S 3.8 mph6.1 kmh 30.06 in1017.9 mb 0.00 in0.0 mm 0.00 in0.0 mm 0.00 in0.0 mm
07:45 AM 32.7°F0.4°C 25.6°F-3.6°C 75% 2.2 mph SSE3.5 kmh SSE 6.9 mph11.1 kmh 30.06 in1017.9 mb 0.00 in0.0 mm 0.00 in0.0 mm 0.00 in0.0 mm
07:40 AM 32.5°F0.3°C 25.5°F-3.6°C 75% 1.9 mph WSW3.1 kmh WSW 7.6 mph12.2 kmh 30.06 in1017.9 mb 0.00 in0.0 mm 0.00 in0.0 mm 0.00 in0.0 mm
07:35 AM 32.7°F0.4°C 25.7°F-3.5°C 75% 3.1 mph SSW5.0 kmh SSW 9.2 mph14.8 kmh 30.06 in1017.9 mb 0.00 in0.0 mm 0.00 in0.0 mm 0.00 in0.0 mm
07:30 AM 32.7°F0.4°C 25.7°F-3.5°C 75% 1.0 mph S1.6 kmh S 4.5 mph7.2 kmh 30.06 in1017.9 mb 0.00 in0.0 mm 0.00 in0.0 mm 0.00 in0.0 mm
07:25 AM 32.7°F0.4°C 25.9°F-3.4°C 76% 1.0 mph WSW1.6 kmh WSW 4.5 mph7.2 kmh 30.06 in1017.9 mb 0.00 in0.0 mm 0.00 in0.0 mm 0.00 in0.0 mm
07:20 AM 32.7°F0.4°C 25.8°F-3.4°C 76% 1.2 mph SE1.9 kmh SE 5.4 mph8.7 kmh 30.05 in1017.6 mb 0.00 in0.0 mm 0.00 in0.0 mm 0.00 in0.0 mm
07:15 AM 32.7°F0.4°C 26.0°F-3.3°C 76% 1.4 mph SW2.3 kmh SW 6.0 mph9.7 kmh 30.05 in1017.6 mb 0.00 in0.0 mm 0.00 in0.0 mm 0.00 in0.0 mm
07:10 AM 32.7°F0.4°C 26.0°F-3.3°C 76% 1.9 mph SE3.1 kmh SE 5.4 mph8.7 kmh 30.05 in1017.6 mb 0.00 in0.0 mm 0.00 in0.0 mm 0.00 in0.0 mm
07:05 AM 32.7°F0.4°C 26.0°F-3.3°C 76% 1.6 mph SE2.6 kmh SE 3.1 mph5.0 kmh 30.05 in1017.6 mb 0.00 in0.0 mm 0.00 in0.0 mm 0.00 in0.0 mm
07:00 AM 32.7°F0.4°C 26.2°F-3.2°C 76% 0.6 mph SW1.0 kmh SW 3.8 mph6.1 kmh 30.05 in1017.6 mb 0.00 in0.0 mm 0.00 in0.0 mm 0.00 in0.0 mm
06:55 AM 32.7°F0.4°C 26.1°F-3.3°C 76% 1.0 mph NW1.6 kmh NW 4.5 mph7.2 kmh 30.05 in1017.6 mb 0.00 in0.0 mm 0.00 in0.0 mm 0.00 in0.0 mm
06:50 AM 32.7°F0.4°C 26.2°F-3.2°C 77% 2.1 mph S3.4 kmh S 6.0 mph9.7 kmh 30.05 in1017.6 mb 0.00 in0.0 mm 0.00 in0.0 mm 0.00 in0.0 mm
06:45 AM 32.7°F0.4°C 26.3°F-3.2°C 77% 1.6 mph S2.6 kmh S 3.8 mph6.1 kmh 30.05 in1017.6 mb 0.00 in0.0 mm 0.00 in0.0 mm 0.00 in0.0 mm
06:40 AM 32.7°F0.4°C 26.3°F-3.2°C 77% 2.7 mph WSW4.3 kmh WSW 6.9 mph11.1 kmh 30.05 in1017.6 mb 0.00 in0.0 mm 0.00 in0.0 mm 0.00 in0.0 mm
06:35 AM 32.7°F0.4°C 26.3°F-3.2°C 77% 2.3 mph S3.7 kmh S 6.0 mph9.7 kmh 30.05 in1017.6 mb 0.00 in0.0 mm 0.00 in0.0 mm 0.00 in0.0 mm
06:30 AM 32.6°F0.3°C 26.4°F-3.1°C 78% 2.3 mph S3.7 kmh S 6.9 mph11.1 kmh 30.05 in1017.6 mb 0.00 in0.0 mm 0.00 in0.0 mm 0.00 in0.0 mm
06:25 AM 32.7°F0.4°C 26.6°F-3.0°C 78% 2.5 mph S4.0 kmh S 6.0 mph9.7 kmh 30.04 in1017.3 mb 0.00 in0.0 mm 0.00 in0.0 mm 0.00 in0.0 mm
06:20 AM 32.7°F0.4°C 26.6°F-3.0°C 78% 2.2 mph S3.5 kmh S 5.4 mph8.7 kmh 30.04 in1017.3 mb 0.00 in0.0 mm 0.00 in0.0 mm 0.00 in0.0 mm
06:15 AM 32.7°F0.4°C 26.6°F-3.0°C 78% 3.2 mph SW5.1 kmh SW 7.6 mph12.2 kmh 30.05 in1017.6 mb 0.00 in0.0 mm 0.00 in0.0 mm 0.00 in0.0 mm
06:10 AM 32.7°F0.4°C 26.6°F-3.0°C 78% 1.8 mph S2.9 kmh S 6.9 mph11.1 kmh 30.04 in1017.3 mb 0.00 in0.0 mm 0.00 in0.0 mm 0.00 in0.0 mm
06:05 AM 32.7°F0.4°C 26.6°F-3.0°C 78% 1.9 mph WSW3.1 kmh WSW 4.5 mph7.2 kmh 30.04 in1017.3 mb 0.00 in0.0 mm 0.00 in0.0 mm 0.00 in0.0 mm
06:00 AM 32.7°F0.4°C 26.6°F-3.0°C 78% 2.3 mph S3.7 kmh S 6.0 mph9.7 kmh 30.04 in1017.3 mb 0.00 in0.0 mm 0.00 in0.0 mm 0.00 in0.0 mm
05:55 AM 32.7°F0.4°C 26.6°F-3.0°C 78% 2.6 mph SW4.2 kmh SW 7.6 mph12.2 kmh 30.04 in1017.3 mb 0.00 in0.0 mm 0.00 in0.0 mm 0.00 in0.0 mm
05:50 AM 33.4°F0.8°C 27.3°F-2.6°C 78% 2.5 mph S4.0 kmh S 6.0 mph9.7 kmh 30.04 in1017.3 mb 0.00 in0.0 mm 0.00 in0.0 mm 0.00 in0.0 mm
05:45 AM 32.7°F0.4°C 26.6°F-3.0°C 78% 1.8 mph SSW2.9 kmh SSW 5.4 mph8.7 kmh 30.04 in1017.3 mb 0.00 in0.0 mm 0.00 in0.0 mm 0.00 in0.0 mm
05:40 AM 32.7°F0.4°C 26.6°F-3.0°C 78% 2.4 mph S3.9 kmh S 6.0 mph9.7 kmh 30.04 in1017.3 mb 0.00 in0.0 mm 0.00 in0.0 mm 0.00 in0.0 mm
05:35 AM 32.7°F0.4°C 26.6°F-3.0°C 78% 2.1 mph WSW3.4 kmh WSW 9.2 mph14.8 kmh 30.04 in1017.3 mb 0.00 in0.0 mm 0.00 in0.0 mm 0.00 in0.0 mm
05:30 AM 32.7°F0.4°C 26.6°F-3.0°C 78% 1.3 mph S2.1 kmh S 6.0 mph9.7 kmh 30.04 in1017.3 mb 0.00 in0.0 mm 0.00 in0.0 mm 0.00 in0.0 mm
05:25 AM 33.1°F0.6°C 27.0°F-2.8°C 78% 1.2 mph S1.9 kmh S 4.5 mph7.2 kmh 30.04 in1017.3 mb 0.00 in0.0 mm 0.00 in0.0 mm 0.00 in0.0 mm
05:20 AM 32.8°F0.4°C 26.7°F-2.9°C 78% 2.6 mph S4.2 kmh S 6.0 mph9.7 kmh 30.03 in1016.9 mb 0.00 in0.0 mm 0.00 in0.0 mm 0.00 in0.0 mm
05:15 AM 32.9°F0.5°C 26.8°F-2.9°C 78% 1.4 mph S2.3 kmh S 5.4 mph8.7 kmh 30.03 in1016.9 mb 0.00 in0.0 mm 0.00 in0.0 mm 0.00 in0.0 mm
05:10 AM 32.9°F0.5°C 27.1°F-2.7°C 79% 1.2 mph S1.9 kmh S 5.4 mph8.7 kmh 30.04 in1017.3 mb 0.00 in0.0 mm 0.00 in0.0 mm 0.00 in0.0 mm
05:05 AM 32.9°F0.5°C 27.1°F-2.7°C 79% 0.7 mph S1.1 kmh S 2.2 mph3.5 kmh 30.03 in1016.9 mb 0.00 in0.0 mm 0.00 in0.0 mm 0.00 in0.0 mm
05:00 AM 32.9°F0.5°C 27.1°F-2.7°C 79% 0.8 mph S1.3 kmh S 3.1 mph5.0 kmh 30.03 in1016.9 mb 0.00 in0.0 mm 0.00 in0.0 mm 0.00 in0.0 mm
04:55 AM 32.8°F0.4°C 27.0°F-2.8°C 79% 1.2 mph S1.9 kmh S 6.0 mph9.7 kmh 30.04 in1017.3 mb 0.00 in0.0 mm 0.00 in0.0 mm 0.00 in0.0 mm
04:50 AM 32.7°F0.4°C 26.9°F-2.8°C 79% 1.6 mph SSW2.6 kmh SSW 6.0 mph9.7 kmh 30.03 in1016.9 mb 0.00 in0.0 mm 0.00 in0.0 mm 0.00 in0.0 mm
04:45 AM 32.8°F0.4°C 27.0°F-2.8°C 79% 1.9 mph S3.1 kmh S 6.0 mph9.7 kmh 30.03 in1016.9 mb 0.00 in0.0 mm 0.00 in0.0 mm 0.00 in0.0 mm
04:40 AM 32.9°F0.5°C 27.1°F-2.7°C 79% 1.9 mph SSE3.1 kmh SSE 4.5 mph7.2 kmh 30.03 in1016.9 mb 0.00 in0.0 mm 0.00 in0.0 mm 0.00 in0.0 mm
04:35 AM 32.9°F0.5°C 27.1°F-2.7°C 79% 0.5 mph S0.8 kmh S 3.8 mph6.1 kmh 30.03 in1016.9 mb 0.00 in0.0 mm 0.00 in0.0 mm 0.00 in0.0 mm
04:30 AM 33.0°F0.6°C 27.2°F-2.7°C 79% 1.1 mph S1.8 kmh S 5.4 mph8.7 kmh 30.03 in1016.9 mb 0.00 in0.0 mm 0.00 in0.0 mm 0.00 in0.0 mm
04:25 AM 33.1°F0.6°C 27.3°F-2.6°C 79% 1.1 mph S1.8 kmh S 3.8 mph6.1 kmh 30.03 in1016.9 mb 0.00 in0.0 mm 0.00 in0.0 mm 0.00 in0.0 mm
04:20 AM 33.1°F0.6°C 27.3°F-2.6°C 79% 1.1 mph W1.8 kmh W 4.5 mph7.2 kmh 30.03 in1016.9 mb 0.00 in0.0 mm 0.00 in0.0 mm 0.00 in0.0 mm
04:15 AM 33.1°F0.6°C 27.3°F-2.6°C 79% 1.5 mph S2.4 kmh S 3.8 mph6.1 kmh 30.03 in1016.9 mb 0.00 in0.0 mm 0.00 in0.0 mm 0.00 in0.0 mm
04:10 AM 32.9°F0.5°C 27.1°F-2.7°C 79% 1.1 mph S1.8 kmh S 5.4 mph8.7 kmh 30.03 in1016.9 mb 0.00 in0.0 mm 0.00 in0.0 mm 0.00 in0.0 mm
04:05 AM 32.9°F0.5°C 27.1°F-2.7°C 79% 0.7 mph S1.1 kmh S 1.6 mph2.6 kmh 30.03 in1016.9 mb 0.00 in0.0 mm 0.00 in0.0 mm 0.00 in0.0 mm
04:00 AM 32.9°F0.5°C 27.1°F-2.7°C 79% 1.0 mph S1.6 kmh S 3.8 mph6.1 kmh 30.03 in1016.9 mb 0.00 in0.0 mm 0.00 in0.0 mm 0.00 in0.0 mm
03:55 AM 32.9°F0.5°C 27.1°F-2.7°C 79% 1.5 mph S2.4 kmh S 4.5 mph7.2 kmh 30.03 in1016.9 mb 0.00 in0.0 mm 0.00 in0.0 mm 0.00 in0.0 mm
03:50 AM 33.0°F0.6°C 27.3°F-2.6°C 79% 2.3 mph S3.7 kmh S 6.0 mph9.7 kmh 30.03 in1016.9 mb 0.00 in0.0 mm 0.00 in0.0 mm 0.00 in0.0 mm
03:45 AM 33.1°F0.6°C 27.3°F-2.6°C 79% 1.0 mph S1.6 kmh S 5.4 mph8.7 kmh 30.03 in1016.9 mb 0.00 in0.0 mm 0.00 in0.0 mm 0.00 in0.0 mm
03:40 AM 33.1°F0.6°C 27.3°F-2.6°C 79% 1.9 mph S3.1 kmh S 6.9 mph11.1 kmh 30.03 in1016.9 mb 0.00 in0.0 mm 0.00 in0.0 mm 0.00 in0.0 mm
03:35 AM 33.1°F0.6°C 27.3°F-2.6°C 79% 1.9 mph S3.1 kmh S 6.9 mph11.1 kmh 30.03 in1016.9 mb 0.00 in0.0 mm 0.00 in0.0 mm 0.00 in0.0 mm
03:30 AM 33.1°F0.6°C 27.3°F-2.6°C 79% 0.7 mph S1.1 kmh S 5.4 mph8.7 kmh 30.03 in1016.9 mb 0.00 in0.0 mm 0.00 in0.0 mm 0.00 in0.0 mm
03:25 AM 33.1°F0.6°C 27.3°F-2.6°C 79% 2.2 mph S3.5 kmh S 5.4 mph8.7 kmh 30.03 in1016.9 mb 0.00 in0.0 mm 0.00 in0.0 mm 0.00 in0.0 mm
03:20 AM 33.1°F0.6°C 27.3°F-2.6°C 79% 1.5 mph S2.4 kmh S 3.8 mph6.1 kmh 30.03 in1016.9 mb 0.00 in0.0 mm 0.00 in0.0 mm 0.00 in0.0 mm
03:15 AM 33.2°F0.7°C 27.4°F-2.6°C 79% 1.6 mph S2.6 kmh S 5.4 mph8.7 kmh 30.03 in1016.9 mb 0.00 in0.0 mm 0.00 in0.0 mm 0.00 in0.0 mm
03:10 AM 33.1°F0.6°C 27.3°F-2.6°C 79% 2.1 mph S3.4 kmh S 5.4 mph8.7 kmh 30.03 in1016.9 mb 0.00 in0.0 mm 0.00 in0.0 mm 0.00 in0.0 mm
03:05 AM 33.1°F0.6°C 27.3°F-2.6°C 79% 2.2 mph S3.5 kmh S 5.4 mph8.7 kmh 30.03 in1016.9 mb 0.00 in0.0 mm 0.00 in0.0 mm 0.00 in0.0 mm
03:00 AM 33.1°F0.6°C 27.3°F-2.6°C 79% 2.1 mph S3.4 kmh S 4.5 mph7.2 kmh 30.02 in1016.6 mb 0.00 in0.0 mm 0.00 in0.0 mm 0.00 in0.0 mm
02:55 AM 33.1°F0.6°C 27.3°F-2.6°C 79% 1.3 mph S2.1 kmh S 5.4 mph8.7 kmh 30.02 in1016.6 mb 0.00 in0.0 mm 0.00 in0.0 mm 0.00 in0.0 mm
02:50 AM 33.1°F0.6°C 27.3°F-2.6°C 79% 2.2 mph SW3.5 kmh SW 5.4 mph8.7 kmh 30.02 in1016.6 mb 0.00 in0.0 mm 0.00 in0.0 mm 0.00 in0.0 mm
02:45 AM 33.2°F0.7°C 27.4°F-2.6°C 79% 2.1 mph W3.4 kmh W 6.0 mph9.7 kmh 30.02 in1016.6 mb 0.00 in0.0 mm 0.00 in0.0 mm 0.00 in0.0 mm
02:40 AM 34.2°F1.2°C 28.4°F-2.0°C 79% 3.5 mph S5.6 kmh S 9.2 mph14.8 kmh 30.02 in1016.6 mb 0.00 in0.0 mm 0.00 in0.0 mm 0.00 in0.0 mm
02:35 AM 33.3°F0.7°C 27.5°F-2.5°C 79% 1.6 mph S2.6 kmh S 8.3 mph13.4 kmh 30.02 in1016.6 mb 0.00 in0.0 mm 0.00 in0.0 mm 0.00 in0.0 mm
02:30 AM 33.3°F0.7°C 27.5°F-2.5°C 79% 2.4 mph WSW3.9 kmh WSW 5.4 mph8.7 kmh 30.02 in1016.6 mb 0.00 in0.0 mm 0.00 in0.0 mm 0.00 in0.0 mm
02:25 AM 33.3°F0.7°C 27.5°F-2.5°C 79% 1.2 mph S1.9 kmh S 4.5 mph7.2 kmh 30.02 in1016.6 mb 0.00 in0.0 mm 0.00 in0.0 mm 0.00 in0.0 mm
02:20 AM 33.3°F0.7°C 27.5°F-2.5°C 79% 1.2 mph WNW1.9 kmh WNW 10.7 mph17.2 kmh 30.02 in1016.6 mb 0.00 in0.0 mm 0.00 in0.0 mm 0.00 in0.0 mm
02:15 AM 33.4°F0.8°C 27.6°F-2.4°C 79% 2.2 mph SSW3.5 kmh SSW 6.0 mph9.7 kmh 30.02 in1016.6 mb 0.00 in0.0 mm 0.00 in0.0 mm 0.00 in0.0 mm
02:10 AM 33.4°F0.8°C 27.6°F-2.4°C 79% 2.0 mph S3.2 kmh S 6.9 mph11.1 kmh 30.02 in1016.6 mb 0.00 in0.0 mm 0.00 in0.0 mm 0.00 in0.0 mm
02:05 AM 33.4°F0.8°C 27.6°F-2.4°C 79% 3.8 mph S6.1 kmh S 6.9 mph11.1 kmh 30.02 in1016.6 mb 0.00 in0.0 mm 0.00 in0.0 mm 0.00 in0.0 mm
02:00 AM 33.4°F0.8°C 27.6°F-2.4°C 79% 2.6 mph S4.2 kmh S 6.9 mph11.1 kmh 30.02 in1016.6 mb 0.00 in0.0 mm 0.00 in0.0 mm 0.00 in0.0 mm
01:55 AM 33.4°F0.8°C 27.6°F-2.4°C 79% 2.9 mph S4.7 kmh S 9.2 mph14.8 kmh 30.02 in1016.6 mb 0.00 in0.0 mm 0.00 in0.0 mm 0.00 in0.0 mm
01:50 AM 33.5°F0.8°C 27.7°F-2.4°C 79% 2.5 mph S4.0 kmh S 6.0 mph9.7 kmh 30.02 in1016.6 mb 0.00 in0.0 mm 0.00 in0.0 mm 0.00 in0.0 mm
01:45 AM 33.6°F0.9°C 27.7°F-2.4°C 78% 3.5 mph S5.6 kmh S 8.3 mph13.4 kmh 30.02 in1016.6 mb 0.00 in0.0 mm 0.00 in0.0 mm 0.00 in0.0 mm
01:40 AM 33.6°F0.9°C 27.8°F-2.3°C 79% 4.1 mph S6.6 kmh S 11.4 mph18.3 kmh 30.02 in1016.6 mb 0.00 in0.0 mm 0.00 in0.0 mm 0.00 in0.0 mm
01:35 AM 33.6°F0.9°C 27.7°F-2.4°C 79% 2.9 mph S4.7 kmh S 7.6 mph12.2 kmh 30.02 in1016.6 mb 0.00 in0.0 mm 0.00 in0.0 mm 0.00 in0.0 mm
01:30 AM 33.6°F0.9°C 27.6°F-2.4°C 78% 3.4 mph S5.5 kmh S 8.3 mph13.4 kmh 30.02 in1016.6 mb 0.00 in0.0 mm 0.00 in0.0 mm 0.00 in0.0 mm
01:25 AM 33.6°F0.9°C 27.5°F-2.5°C 78% 1.9 mph SSW3.1 kmh SSW 6.0 mph9.7 kmh 30.02 in1016.6 mb 0.00 in0.0 mm 0.00 in0.0 mm 0.00 in0.0 mm
01:20 AM 33.6°F0.9°C 27.5°F-2.5°C 78% 2.3 mph S3.7 kmh S 6.0 mph9.7 kmh 30.02 in1016.6 mb 0.00 in0.0 mm 0.00 in0.0 mm 0.00 in0.0 mm
01:15 AM 34.2°F1.2°C 28.1°F-2.2°C 78% 2.5 mph SE4.0 kmh SE 7.6 mph12.2 kmh 30.02 in1016.6 mb 0.00 in0.0 mm 0.00 in0.0 mm 0.00 in0.0 mm
01:10 AM 33.8°F1.0°C 27.7°F-2.4°C 78% 2.7 mph WSW4.3 kmh WSW 5.4 mph8.7 kmh 30.02 in1016.6 mb 0.00 in0.0 mm 0.00 in0.0 mm 0.00 in0.0 mm
01:05 AM 33.8°F1.0°C 27.7°F-2.4°C 78% 3.1 mph W5.0 kmh W 5.4 mph8.7 kmh 30.03 in1016.9 mb 0.00 in0.0 mm 0.00 in0.0 mm 0.00 in0.0 mm
01:00 AM 33.8°F1.0°C 27.7°F-2.4°C 78% 2.8 mph SSW4.5 kmh SSW 6.9 mph11.1 kmh 30.03 in1016.9 mb 0.00 in0.0 mm 0.00 in0.0 mm 0.00 in0.0 mm
12:55 AM 33.8°F1.0°C 27.7°F-2.4°C 78% 3.2 mph SW5.1 kmh SW 10.7 mph17.2 kmh 30.03 in1016.9 mb 0.00 in0.0 mm 0.00 in0.0 mm 0.00 in0.0 mm
12:50 AM 33.8°F1.0°C 27.7°F-2.4°C 78% 1.8 mph S2.9 kmh S 6.9 mph11.1 kmh 30.03 in1016.9 mb 0.00 in0.0 mm 0.00 in0.0 mm 0.00 in0.0 mm
12:45 AM 33.8°F1.0°C 27.7°F-2.4°C 78% 3.2 mph S5.1 kmh S 6.0 mph9.7 kmh 30.03 in1016.9 mb 0.00 in0.0 mm 0.00 in0.0 mm 0.00 in0.0 mm
12:40 AM 34.5°F1.4°C 28.4°F-2.0°C 78% 2.8 mph S4.5 kmh S 6.9 mph11.1 kmh 30.03 in1016.9 mb 0.00 in0.0 mm 0.00 in0.0 mm 0.00 in0.0 mm
12:35 AM 33.8°F1.0°C 27.7°F-2.4°C 78% 1.6 mph W2.6 kmh W 6.0 mph9.7 kmh 30.03 in1016.9 mb 0.00 in0.0 mm 0.00 in0.0 mm 0.00 in0.0 mm
12:30 AM 33.8°F1.0°C 27.6°F-2.4°C 78% 2.5 mph WSW4.0 kmh WSW 6.0 mph9.7 kmh 30.03 in1016.9 mb 0.00 in0.0 mm 0.00 in0.0 mm 0.00 in0.0 mm
12:25 AM 33.8°F1.0°C 27.7°F-2.4°C 78% 2.1 mph S3.4 kmh S 5.4 mph8.7 kmh 30.03 in1016.9 mb 0.00 in0.0 mm 0.00 in0.0 mm 0.00 in0.0 mm
12:20 AM 33.8°F1.0°C 27.7°F-2.4°C 78% 1.7 mph SSE2.7 kmh SSE 6.9 mph11.1 kmh 30.03 in1016.9 mb 0.00 in0.0 mm 0.00 in0.0 mm 0.00 in0.0 mm
12:15 AM 33.8°F1.0°C 27.7°F-2.4°C 78% 1.9 mph S3.1 kmh S 5.4 mph8.7 kmh 30.03 in1016.9 mb 0.00 in0.0 mm 0.00 in0.0 mm 0.00 in0.0 mm
12:10 AM 33.8°F1.0°C 27.7°F-2.4°C 78% 2.5 mph S4.0 kmh S 6.0 mph9.7 kmh 30.03 in1016.9 mb 0.00 in0.0 mm 0.00 in0.0 mm 0.00 in0.0 mm
12:05 AM 33.8°F1.0°C 27.7°F-2.4°C 78% 3.1 mph S5.0 kmh S 6.0 mph9.7 kmh 30.03 in1016.9 mb 0.00 in0.0 mm 0.00 in0.0 mm 0.00 in0.0 mm
12:00 AM 33.8°F1.0°C 27.7°F-2.4°C 78% 2.0 mph SSW3.2 kmh SSW 5.4 mph8.7 kmh 30.04 in1017.3 mb 0.00 in0.0 mm 0.00 in0.0 mm 0.00 in0.0 mm